Time;durP1;ratioP1;P1;durP2;ratioP2;P2;SDS_P1;SDS_P2;PMS_P1;PMS_P2;Temp;Humidity;BMP_temperature;BMP_pressure;BME280_temperature;BME280_humidity;BME280_pressure;Samples;Min_cycle;Max_cycle;Signal;HPM_P1;HPM_P2
2022/09/26 00:01:44;;;;;;;5.22;3.17;;;;;;;10.28;100.00;95780.41;10494861;27;97468;-76
2022/09/26 00:06:49;;;;;;;5.20;2.90;;;;;;;10.28;100.00;95770.78;10497519;27;96956;-76
2022/09/26 00:11:52;;;;;;;8.18;4.10;;;;;;;10.32;100.00;95771.28;10492528;27;96818;-76
2022/09/26 00:16:56;;;;;;;8.23;3.70;;;;;;;10.31;100.00;95764.44;10465567;27;96841;-76
2022/09/26 00:22:00;;;;;;;8.98;3.30;;;;;;;10.27;100.00;95763.09;10482068;27;97394;-76
2022/09/26 00:27:03;;;;;;;6.80;3.28;;;;;;;10.24;100.00;95761.63;10482175;27;98652;-76
2022/09/26 00:32:06;;;;;;;5.43;2.67;;;;;;;10.22;100.00;95753.16;10465334;27;96884;-76
2022/09/26 00:37:10;;;;;;;6.03;2.92;;;;;;;10.24;100.00;95754.59;10484955;27;96984;-77
2022/09/26 00:42:14;;;;;;;3.65;2.67;;;;;;;10.28;100.00;95746.47;10519205;27;97049;-76
2022/09/26 00:47:24;;;;;;;6.25;2.60;;;;;;;10.25;100.00;95744.97;10511270;27;96876;-76
2022/09/26 00:52:32;;;;;;;4.20;2.60;;;;;;;10.29;100.00;95730.66;10496103;27;98412;-76
2022/09/26 00:57:40;;;;;;;4.93;2.65;;;;;;;10.34;100.00;95724.94;10541914;27;96756;-77
2022/09/26 01:02:46;;;;;;;5.50;2.35;;;;;;;10.41;100.00;95729.38;10464371;27;96877;-76
2022/09/26 01:07:52;;;;;;;3.40;2.60;;;;;;;10.46;100.00;95726.31;10484203;27;96824;-76
2022/09/26 01:12:57;;;;;;;4.53;2.50;;;;;;;10.43;100.00;95726.59;10502021;27;96706;-76
2022/09/26 01:17:59;;;;;;;7.23;2.90;;;;;;;10.42;100.00;95719.75;10495538;27;97469;-77
2022/09/26 01:23:34;;;;;;;8.20;2.90;;;;;;;10.46;100.00;95720.22;10465333;27;97183;-76
2022/09/26 01:28:57;;;;;;;4.53;2.40;;;;;;;10.49;100.00;95720.72;10463451;27;96811;-76
2022/09/26 01:34:06;;;;;;;6.88;2.83;;;;;;;10.50;100.00;95714.53;10460860;27;96871;-76
2022/09/26 01:39:23;;;;;;;7.03;2.83;;;;;;;10.51;100.00;95707.53;10475539;27;96844;-76
2022/09/26 01:44:30;;;;;;;3.97;2.65;;;;;;;10.52;100.00;95694.31;10464550;27;100565;-76
2022/09/26 01:49:43;;;;;;;5.65;2.78;;;;;;;10.52;100.00;95696.91;10467460;27;98739;-76
2022/09/26 01:54:53;;;;;;;3.63;2.60;;;;;;;10.49;100.00;95689.41;10473332;27;97846;-76
2022/09/26 02:00:01;;;;;;;3.95;2.85;;;;;;;10.50;100.00;95690.22;10469390;27;96810;-76
2022/09/26 02:05:12;;;;;;;5.13;2.70;;;;;;;10.35;100.00;95684.81;10450221;27;97092;-76
2022/09/26 02:10:18;;;;;;;5.18;2.67;;;;;;;10.28;100.00;95687.22;10436873;27;97096;-76
2022/09/26 02:15:24;;;;;;;5.45;2.67;;;;;;;10.23;100.00;95679.91;10459432;27;97157;-77
2022/09/26 02:20:31;;;;;;;4.57;2.88;;;;;;;10.26;100.00;95678.75;10425107;27;97012;-76
2022/09/26 02:25:34;;;;;;;5.10;2.92;;;;;;;10.27;100.00;95684.78;10418231;27;98664;-76
2022/09/26 02:30:39;;;;;;;4.20;2.97;;;;;;;10.26;100.00;95667.50;10440424;27;96861;-76
2022/09/26 02:35:56;;;;;;;3.70;2.80;;;;;;;10.23;100.00;95661.63;10484047;27;96849;-77
2022/09/26 02:41:05;;;;;;;4.95;3.03;;;;;;;10.20;100.00;95653.28;10462071;27;96733;-76
2022/09/26 02:46:25;;;;;;;3.33;2.88;;;;;;;10.15;100.00;95651.16;10461696;27;96816;-76
2022/09/26 02:51:46;;;;;;;7.72;3.75;;;;;;;10.04;100.00;95648.81;10474486;27;96878;-76
2022/09/26 02:57:02;;;;;;;3.95;3.00;;;;;;;9.90;100.00;95646.84;10503470;27;97518;-76
2022/09/26 03:02:10;;;;;;;3.80;3.40;;;;;;;9.78;100.00;95641.88;10484960;27;96812;-76
2022/09/26 03:07:20;;;;;;;5.00;3.55;;;;;;;9.70;100.00;95641.88;10461939;27;96898;-76
2022/09/26 03:12:25;;;;;;;6.45;3.65;;;;;;;9.64;100.00;95639.88;10487237;27;98697;-77
2022/09/26 03:17:28;;;;;;;5.00;3.30;;;;;;;9.58;100.00;95632.69;10485370;27;99385;-76
2022/09/26 03:22:32;;;;;;;4.93;3.10;;;;;;;9.54;100.00;95615.72;10472806;27;98584;-76
2022/09/26 03:27:40;;;;;;;7.03;3.50;;;;;;;9.39;100.00;95629.31;10468074;27;96896;-76
2022/09/26 03:32:43;;;;;;;4.43;3.15;;;;;;;9.31;100.00;95626.66;10470555;27;97636;-76
2022/09/26 03:37:47;;;;;;;9.82;4.97;;;;;;;9.25;100.00;95624.69;10482836;27;97615;-76
2022/09/26 03:42:50;;;;;;;7.88;4.57;;;;;;;9.17;100.00;95614.22;10467825;27;97790;-76
2022/09/26 03:47:56;;;;;;;9.50;5.90;;;;;;;9.09;100.00;95617.59;10466705;27;96679;-76
2022/09/26 03:53:00;;;;;;;9.52;5.10;;;;;;;8.99;100.00;95620.28;10468423;27;96908;-77
2022/09/26 03:58:03;;;;;;;7.28;4.43;;;;;;;8.92;100.00;95612.25;10466996;27;96865;-77
2022/09/26 04:03:05;;;;;;;7.25;3.58;;;;;;;8.90;100.00;95597.78;10492887;27;96848;-76
2022/09/26 04:08:09;;;;;;;5.68;3.30;;;;;;;8.88;100.00;95603.13;10484817;27;96863;-76
2022/09/26 04:13:12;;;;;;;4.65;2.88;;;;;;;8.91;100.00;95599.38;10471607;27;96954;-76
2022/09/26 04:18:35;;;;;;;4.63;3.10;;;;;;;8.89;100.00;95598.72;10469727;27;96767;-76
2022/09/26 04:23:41;;;;;;;5.63;3.22;;;;;;;8.89;100.00;95590.91;10486990;27;96944;-76
2022/09/26 04:28:44;;;;;;;8.57;3.67;;;;;;;8.77;100.00;95586.94;10465244;27;96840;-76
2022/09/26 04:33:48;;;;;;;4.28;3.20;;;;;;;8.71;100.00;95597.00;10493079;27;97936;-76
2022/09/26 04:38:52;;;;;;;5.47;3.45;;;;;;;8.64;100.00;95590.75;10478393;27;96852;-75
2022/09/26 04:43:55;;;;;;;6.25;3.45;;;;;;;8.62;100.00;95584.88;10465980;27;97495;-76
2022/09/26 04:49:00;;;;;;;5.38;3.15;;;;;;;8.65;100.00;95579.34;10488204;27;96941;-75
2022/09/26 04:54:04;;;;;;;3.33;2.80;;;;;;;8.64;100.00;95580.34;10490423;27;100305;-76
2022/09/26 04:59:07;;;;;;;3.40;2.85;;;;;;;8.66;100.00;95573.19;10492552;27;97088;-76
2022/09/26 05:04:11;;;;;;;5.20;3.22;;;;;;;8.60;100.00;95576.38;10504468;27;96945;-76
2022/09/26 05:09:15;;;;;;;5.00;3.92;;;;;;;8.54;100.00;95577.81;10506790;27;96771;-76
2022/09/26 05:14:18;;;;;;;7.47;4.07;;;;;;;8.57;100.00;95581.09;10500105;27;96831;-76
2022/09/26 05:19:20;;;;;;;7.18;3.60;;;;;;;8.51;100.00;95587.72;10434540;27;96873;-76
2022/09/26 05:29:45;;;;;;;5.03;3.55;;;;;;;8.34;100.00;95576.34;10486517;27;97350;-76
2022/09/26 05:34:47;;;;;;;5.43;3.40;;;;;;;8.35;100.00;95573.59;10506368;27;97480;-75
2022/09/26 05:45:14;;;;;;;9.50;4.07;;;;;;;8.35;100.00;95572.78;10495688;27;98349;-76
2022/09/26 05:50:21;;;;;;;5.07;3.53;;;;;;;8.23;100.00;95569.59;10462965;27;96731;-76
2022/09/26 05:55:25;;;;;;;5.25;3.38;;;;;;;8.20;100.00;95567.28;10477354;27;97054;-76
2022/09/26 06:00:28;;;;;;;6.32;3.30;;;;;;;8.22;100.00;95556.72;10487891;27;96788;-76
2022/09/26 06:05:32;;;;;;;5.57;3.17;;;;;;;8.27;100.00;95551.91;10483072;27;96983;-76
2022/09/26 06:10:37;;;;;;;9.30;3.63;;;;;;;8.31;100.00;95551.47;10497576;27;96859;-76
2022/09/26 06:15:42;;;;;;;5.55;3.75;;;;;;;8.44;100.00;95552.84;10496751;27;98407;-76
2022/09/26 06:20:44;;;;;;;5.83;3.73;;;;;;;8.47;100.00;95561.16;10477120;27;97923;-76
2022/09/26 06:25:48;;;;;;;4.65;3.42;;;;;;;8.44;100.00;95576.28;10467304;27;96811;-76
2022/09/26 06:30:51;;;;;;;4.15;3.10;;;;;;;8.53;100.00;95559.75;10493136;27;98811;-76
2022/09/26 06:35:59;;;;;;;5.60;3.25;;;;;;;8.83;100.00;95555.88;10478612;27;97282;-76
2022/09/26 06:41:04;;;;;;;5.38;3.10;;;;;;;9.14;100.00;95557.19;10460737;27;96691;-76
2022/09/26 06:46:08;;;;;;;4.03;3.08;;;;;;;9.38;100.00;95554.69;10483254;27;98261;-75
2022/09/26 06:51:12;;;;;;;5.57;3.35;;;;;;;9.50;100.00;95544.81;10494617;27;96836;-76
2022/09/26 06:56:17;;;;;;;6.90;3.10;;;;;;;9.55;100.00;95549.56;10513647;27;98363;-76
2022/09/26 07:01:19;;;;;;;4.87;3.70;;;;;;;9.64;100.00;95553.81;10544559;27;96862;-75
2022/09/26 07:06:23;;;;;;;4.43;3.38;;;;;;;9.91;100.00;95549.34;10523918;27;96844;-75
2022/09/26 07:11:27;;;;;;;4.70;3.38;;;;;;;10.28;100.00;95555.91;10513223;27;99211;-76
2022/09/26 07:16:43;;;;;;;5.68;3.55;;;;;;;10.67;100.00;95555.22;10533516;27;97009;-76
2022/09/26 07:21:47;;;;;;;4.18;3.53;;;;;;;11.01;100.00;95546.34;10488618;27;97172;-76
2022/09/26 07:26:51;;;;;;;6.05;4.57;;;;;;;11.19;100.00;95539.13;10467161;27;96750;-76
2022/09/26 07:31:54;;;;;;;6.57;5.18;;;;;;;11.28;100.00;95537.28;10475264;27;96825;-75
2022/09/26 07:36:58;;;;;;;7.97;5.95;;;;;;;11.35;100.00;95536.47;10517621;27;97161;-75
2022/09/26 07:42:02;;;;;;;7.70;5.40;;;;;;;11.49;100.00;95529.69;10537656;27;96814;-75
2022/09/26 07:52:27;;;;;;;6.50;5.13;;;;;;;11.68;100.00;95541.53;10476663;27;97395;-75
2022/09/26 07:57:33;;;;;;;7.07;5.72;;;;;;;11.78;100.00;95548.34;10466473;27;96823;-75
2022/09/26 08:02:35;;;;;;;5.75;4.60;;;;;;;11.88;100.00;95548.94;10464964;27;96745;-75
2022/09/26 08:07:38;;;;;;;7.63;4.82;;;;;;;11.96;100.00;95543.69;10504777;27;96742;-75
2022/09/26 08:12:42;;;;;;;8.48;4.75;;;;;;;12.00;100.00;95547.56;10508665;27;96696;-75
2022/09/26 08:17:45;;;;;;;8.27;4.50;;;;;;;12.18;100.00;95544.69;10509132;27;97447;-75
2022/09/26 08:22:48;;;;;;;8.95;5.18;;;;;;;12.38;100.00;95550.25;10502902;27;96855;-75
2022/09/26 08:27:58;;;;;;;8.68;4.43;;;;;;;12.54;100.00;95543.25;10488748;27;99773;-75
2022/09/26 08:33:01;;;;;;;7.63;5.10;;;;;;;12.65;100.00;95534.97;10495852;27;98389;-75
2022/09/26 08:38:06;;;;;;;6.85;5.15;;;;;;;12.80;100.00;95533.16;10509868;27;97003;-75
2022/09/26 08:43:28;;;;;;;7.95;5.65;;;;;;;12.90;100.00;95538.16;10516389;27;97841;-75
2022/09/26 08:48:43;;;;;;;9.50;5.80;;;;;;;12.94;100.00;95526.34;10513188;27;96785;-75
2022/09/26 08:53:51;;;;;;;8.30;5.63;;;;;;;13.00;100.00;95528.25;10512294;27;96826;-75
2022/09/26 08:58:58;;;;;;;9.70;6.15;;;;;;;13.01;100.00;95515.97;10534215;27;96829;-75
2022/09/26 09:04:05;;;;;;;7.95;6.32;;;;;;;13.03;100.00;95516.59;10496365;27;98367;-75
2022/09/26 09:09:15;;;;;;;7.30;6.38;;;;;;;13.11;100.00;95519.13;10507869;27;97208;-76
2022/09/26 09:14:39;;;;;;;8.52;6.45;;;;;;;13.12;100.00;95519.97;10502260;27;97058;-75
2022/09/26 09:19:53;;;;;;;8.60;6.53;;;;;;;13.36;100.00;95517.03;10497403;27;97524;-76
2022/09/26 09:25:00;;;;;;;6.45;5.75;;;;;;;13.38;100.00;95515.06;10490773;27;97526;-75
2022/09/26 09:30:14;;;;;;;6.60;5.88;;;;;;;13.52;100.00;95520.47;10492413;27;96921;-75
2022/09/26 09:35:24;;;;;;;8.07;6.68;;;;;;;13.56;100.00;95509.41;10507699;27;97812;-76
2022/09/26 09:40:33;;;;;;;8.57;7.35;;;;;;;13.71;100.00;95508.56;10505739;27;96775;-76
2022/09/26 09:45:43;;;;;;;11.95;7.82;;;;;;;13.94;100.00;95508.41;10505915;27;96785;-75
2022/09/26 09:51:00;;;;;;;9.85;7.43;;;;;;;14.04;100.00;95502.81;10514183;27;96833;-75
2022/09/26 09:56:12;;;;;;;9.88;8.13;;;;;;;14.31;100.00;95496.84;10548346;27;96982;-76
2022/09/26 10:01:24;;;;;;;9.20;7.78;;;;;;;14.50;100.00;95497.22;10547814;27;96769;-75
2022/09/26 10:06:27;;;;;;;8.98;7.32;;;;;;;14.78;100.00;95489.31;10516132;27;96802;-76
2022/09/26 10:11:49;;;;;;;8.73;7.55;;;;;;;14.98;100.00;95493.91;10501909;27;96795;-75
2022/09/26 10:17:19;;;;;;;7.40;6.57;;;;;;;15.15;100.00;95481.22;10512943;27;96922;-76
2022/09/26 10:22:31;;;;;;;8.48;6.13;;;;;;;15.34;100.00;95477.06;10512568;27;96941;-76
2022/09/26 10:27:37;;;;;;;6.22;5.30;;;;;;;15.33;100.00;95465.75;10534989;27;96799;-75
2022/09/26 10:32:46;;;;;;;8.05;5.85;;;;;;;15.25;100.00;95447.50;10537146;27;97182;-76
2022/09/26 10:38:02;;;;;;;5.13;4.63;;;;;;;15.42;100.00;95437.44;10470588;27;96808;-76
2022/09/26 10:43:23;;;;;;;5.50;4.40;;;;;;;15.47;100.00;95424.50;10470264;27;96789;-76
2022/09/26 10:48:41;;;;;;;3.75;3.45;;;;;;;15.75;100.00;95421.75;10485065;27;99640;-73
2022/09/26 10:53:46;;;;;;;3.83;3.42;;;;;;;15.88;100.00;95416.50;10488497;27;97477;-76
2022/09/26 10:58:50;;;;;;;;;;;;;;;16.19;100.00;95407.22;10507281;27;97012;-76
2022/09/26 11:03:58;;;;;;;3.00;2.42;;;;;;;16.19;100.00;95401.94;10516094;27;96940;-76
2022/09/26 11:09:04;;;;;;;4.05;2.50;;;;;;;16.49;100.00;95401.50;10478735;27;97192;-75
2022/09/26 11:14:08;;;;;;;2.40;1.85;;;;;;;16.69;100.00;95395.38;10510577;27;96657;-76
2022/09/26 11:19:18;;;;;;;;;;;;;;;16.34;100.00;95383.25;10500013;27;96795;-76
2022/09/26 11:24:29;;;;;;;2.63;1.90;;;;;;;16.29;100.00;95388.34;10498341;27;99106;-76
2022/09/26 11:29:42;;;;;;;2.67;2.03;;;;;;;16.02;100.00;95385.72;10518609;27;97108;-76
2022/09/26 11:34:46;;;;;;;2.28;1.83;;;;;;;16.02;100.00;95377.81;10506094;27;96786;-75
2022/09/26 11:40:02;;;;;;;2.33;1.63;;;;;;;16.08;100.00;95378.81;10487963;27;97028;-76
2022/09/26 11:45:23;;;;;;;2.45;1.85;;;;;;;16.52;100.00;95371.28;10496719;27;96939;-76
2022/09/26 11:50:46;;;;;;;2.42;1.65;;;;;;;17.00;100.00;95363.88;10522248;27;98324;-76
2022/09/26 11:56:05;;;;;;;1.75;1.60;;;;;;;17.06;100.00;95356.13;10510579;27;96873;-76
2022/09/26 12:01:18;;;;;;;2.05;1.40;;;;;;;17.13;100.00;95346.38;10520159;27;97633;-76
2022/09/26 12:06:32;;;;;;;1.55;1.23;;;;;;;17.27;100.00;95340.00;10516249;27;96795;-76
2022/09/26 12:11:45;;;;;;;1.83;1.40;;;;;;;17.42;100.00;95336.25;10496322;27;97724;-76
2022/09/26 12:16:57;;;;;;;1.20;0.95;;;;;;;17.69;100.00;95327.13;10539301;27;96796;-76
2022/09/26 12:27:37;;;;;;;1.58;1.00;;;;;;;17.65;100.00;95304.00;10514624;27;96914;-76
2022/09/26 12:33:31;;;;;;;2.05;0.80;;;;;;;17.67;95.22;95292.19;10547553;27;96835;-75
2022/09/26 12:38:59;;;;;;;1.58;0.90;;;;;;;17.60;100.00;95278.25;10294523;28;97034;-75
2022/09/26 12:44:44;;;;;;;1.67;0.98;;;;;;;17.57;89.28;95279.47;10312774;28;97237;-76
2022/09/26 12:50:03;;;;;;;1.42;0.98;;;;;;;17.52;96.31;95281.13;10199285;28;96973;-74
2022/09/26 12:55:26;;;;;;;0.63;0.50;;;;;;;17.56;92.32;95274.38;10182648;28;97129;-74
2022/09/26 13:00:39;;;;;;;2.00;0.80;;;;;;;18.00;88.19;95256.78;10205682;28;96988;-75
2022/09/26 13:06:02;;;;;;;0.98;0.68;;;;;;;18.26;85.88;95263.63;10190768;28;98146;-74
2022/09/26 13:11:21;;;;;;;1.58;0.80;;;;;;;17.81;89.81;95261.19;10195230;28;96856;-75
2022/09/26 13:16:32;;;;;;;1.92;0.88;;;;;;;17.62;85.39;95256.91;10369304;28;97044;-74
2022/09/26 13:21:44;;;;;;;2.10;0.90;;;;;;;17.68;88.49;95256.84;10417294;27;96899;-74
2022/09/26 13:26:53;;;;;;;0.98;0.80;;;;;;;17.84;84.39;95250.22;10506341;27;96760;-75
2022/09/26 13:32:07;;;;;;;1.30;0.77;;;;;;;18.11;80.79;95242.84;10506216;27;97216;-74
2022/09/26 13:37:19;;;;;;;1.97;1.07;;;;;;;17.89;83.98;95237.19;10471004;27;96892;-74
2022/09/26 13:42:33;;;;;;;1.15;0.80;;;;;;;17.47;84.11;95241.38;10463279;27;98427;-75
2022/09/26 13:47:45;;;;;;;2.75;0.98;;;;;;;16.98;89.61;95236.63;10463150;27;96625;-74
2022/09/26 13:52:59;;;;;;;2.03;0.95;;;;;;;16.72;93.88;95234.09;10498931;27;96802;-74
2022/09/26 13:58:19;;;;;;;0.82;0.80;;;;;;;16.48;93.12;95231.16;10504781;27;96685;-75
2022/09/26 14:03:40;;;;;;;2.83;0.70;;;;;;;16.19;93.82;95237.75;10495847;27;97085;-75
2022/09/26 14:09:27;;;;;;;1.17;0.82;;;;;;;16.12;91.85;95239.59;10504843;27;96865;-75
2022/09/26 14:15:06;;;;;;;2.17;0.80;;;;;;;15.97;90.43;95227.47;10504454;27;96807;-75
2022/09/26 14:20:19;;;;;;;1.33;0.60;;;;;;;15.99;93.56;95224.63;10504232;27;96754;-74
2022/09/26 14:25:55;;;;;;;0.80;0.60;;;;;;;16.00;89.48;95228.91;10501213;27;96831;-75
2022/09/26 14:31:21;;;;;;;1.23;0.70;;;;;;;16.02;91.23;95227.66;10504003;27;96872;-75
2022/09/26 14:36:27;;;;;;;1.88;0.70;;;;;;;15.92;98.78;95216.75;10503275;27;96917;-75
2022/09/26 14:41:33;;;;;;;1.25;0.90;;;;;;;15.72;99.26;95219.44;10498596;27;96870;-74
2022/09/26 14:46:40;;;;;;;0.88;0.68;;;;;;;15.53;98.22;95209.66;10504082;27;96641;-75
2022/09/26 14:51:48;;;;;;;2.75;0.90;;;;;;;15.41;100.00;95212.09;10473138;27;96608;-76
2022/09/26 14:56:59;;;;;;;1.27;0.50;;;;;;;15.27;97.17;95213.94;10461384;27;96749;-76
2022/09/26 15:02:25;;;;;;;1.27;0.70;;;;;;;15.10;95.78;95209.06;10461740;27;97268;-76
2022/09/26 15:07:31;;;;;;;1.98;0.90;;;;;;;15.02;99.57;95209.25;10498727;27;96759;-76
2022/09/26 15:12:43;;;;;;;2.20;0.80;;;;;;;14.95;100.00;95208.44;10510566;27;96702;-76
2022/09/26 15:17:52;;;;;;;1.83;0.90;;;;;;;15.11;100.00;95204.59;10507358;27;96779;-75
2022/09/26 15:22:56;;;;;;;3.22;0.98;;;;;;;15.05;100.00;95205.44;10502022;27;97490;-75
2022/09/26 15:27:59;;;;;;;1.30;1.05;;;;;;;14.97;100.00;95203.78;10497078;27;96752;-75
2022/09/26 15:33:04;;;;;;;2.38;1.27;;;;;;;14.95;100.00;95200.56;10510253;27;96645;-75
2022/09/26 15:38:11;;;;;;;1.58;0.93;;;;;;;14.78;100.00;95191.44;10502444;27;97227;-75
2022/09/26 15:43:20;;;;;;;2.20;1.17;;;;;;;14.61;100.00;95180.47;10506741;27;96829;-75
2022/09/26 15:48:30;;;;;;;2.13;1.02;;;;;;;14.51;100.00;95180.84;10508915;27;96822;-75
2022/09/26 15:53:38;;;;;;;2.40;0.90;;;;;;;14.36;100.00;95176.56;10509261;27;98316;-75
2022/09/26 15:58:46;;;;;;;2.53;0.70;;;;;;;14.23;100.00;95179.13;10509314;27;96694;-76
2022/09/26 16:03:57;;;;;;;1.45;0.80;;;;;;;14.15;100.00;95179.28;10502686;27;96848;-76
2022/09/26 16:09:06;;;;;;;2.55;1.00;;;;;;;14.16;100.00;95176.47;10469579;27;96979;-75
2022/09/26 16:14:25;;;;;;;3.35;1.02;;;;;;;14.30;100.00;95187.03;10508066;27;96917;-75
2022/09/26 16:19:33;;;;;;;1.50;1.00;;;;;;;14.42;100.00;95185.47;10493240;27;96773;-75
2022/09/26 16:24:36;;;;;;;2.22;0.93;;;;;;;14.31;100.00;95189.47;10465735;27;96722;-75
2022/09/26 16:29:39;;;;;;;3.28;1.25;;;;;;;14.12;100.00;95185.75;10466012;27;96789;-75
2022/09/26 16:34:44;;;;;;;2.13;1.05;;;;;;;14.04;100.00;95193.78;10464563;27;96701;-75
2022/09/26 16:39:55;;;;;;;2.10;1.10;;;;;;;14.05;100.00;95184.88;10517301;27;97336;-75
2022/09/26 16:44:58;;;;;;;6.90;4.63;;;;;;;13.96;100.00;95186.88;10476782;27;96734;-74
2022/09/26 16:55:36;;;;;;;2.55;1.20;;;;;;;13.72;100.00;95192.59;10449813;27;96669;-75
2022/09/26 17:06:00;;;;;;;1.25;1.00;;;;;;;13.54;100.00;95187.84;10403675;28;97155;-75
2022/09/26 17:11:10;;;;;;;2.05;1.17;;;;;;;13.36;100.00;95191.75;10409358;28;96790;-74
2022/09/26 17:16:13;;;;;;;1.45;0.90;;;;;;;13.23;100.00;95192.47;10392314;28;96841;-74
2022/09/26 17:21:16;;;;;;;2.42;0.95;;;;;;;13.12;100.00;95190.38;10395704;28;97123;-74
2022/09/26 17:26:22;;;;;;;1.85;1.10;;;;;;;13.00;100.00;95181.38;10409149;28;97005;-74
2022/09/26 17:31:25;;;;;;;1.95;1.00;;;;;;;13.03;100.00;95192.31;10397595;28;97011;-75
2022/09/26 17:36:29;;;;;;;2.42;0.73;;;;;;;12.98;100.00;95178.16;10406049;28;97270;-74
2022/09/26 17:41:36;;;;;;;2.15;1.08;;;;;;;12.94;100.00;95158.53;10426606;27;96926;-75
2022/09/26 17:46:41;;;;;;;1.50;1.15;;;;;;;12.95;100.00;95152.31;10454629;27;96701;-75
2022/09/26 17:51:44;;;;;;;2.60;1.10;;;;;;;12.92;100.00;95168.41;10448341;27;96812;-75
2022/09/26 17:56:48;;;;;;;3.08;1.20;;;;;;;13.04;100.00;95177.38;10453853;27;96957;-82
2022/09/26 18:01:53;;;;;;;2.87;1.20;;;;;;;13.19;100.00;95175.50;10443453;27;97848;-79
2022/09/26 18:07:00;;;;;;;1.77;1.05;;;;;;;13.24;100.00;95173.09;10384496;27;96881;-79
2022/09/26 18:12:05;;;;;;;2.50;0.98;;;;;;;13.25;100.00;95179.16;10408643;28;98617;-79
2022/09/26 18:17:14;;;;;;;4.07;1.30;;;;;;;13.18;100.00;95183.53;10423071;28;97085;-79
2022/09/26 18:22:19;;;;;;;2.72;1.13;;;;;;;13.17;100.00;95190.63;10417272;27;96980;-79
2022/09/26 18:27:23;;;;;;;2.53;1.20;;;;;;;13.05;100.00;95194.75;10423335;27;98661;-80
2022/09/26 18:32:30;;;;;;;1.93;1.40;;;;;;;12.98;100.00;95201.75;10425656;27;96745;-80
2022/09/26 18:37:33;;;;;;;4.20;1.77;;;;;;;12.90;100.00;95201.84;10425604;27;96831;-80
2022/09/26 18:42:37;;;;;;;2.20;1.35;;;;;;;12.76;100.00;95198.28;10406910;28;96847;-79
2022/09/26 18:47:43;;;;;;;2.92;1.27;;;;;;;12.67;100.00;95205.44;10438861;27;96889;-80
2022/09/26 18:52:46;;;;;;;3.63;1.67;;;;;;;12.63;100.00;95202.38;10422483;27;96790;-80
2022/09/26 19:03:10;;;;;;;2.85;1.65;;;;;;;12.64;100.00;95217.09;10403870;27;98275;-79
2022/09/26 19:08:27;;;;;;;3.00;1.58;;;;;;;12.59;100.00;95223.91;10406790;27;96949;-80
2022/09/26 19:13:32;;;;;;;4.38;1.98;;;;;;;12.55;100.00;95225.28;10385215;27;98682;-80
2022/09/26 19:18:35;;;;;;;2.55;2.00;;;;;;;12.46;100.00;95222.75;10422312;27;97277;-79
2022/09/26 19:23:38;;;;;;;4.45;1.77;;;;;;;12.39;100.00;95208.78;10425603;27;97106;-79
2022/09/26 19:28:42;;;;;;;4.97;2.13;;;;;;;12.37;100.00;95210.78;10414039;28;97193;-80
2022/09/26 19:33:47;;;;;;;3.40;1.80;;;;;;;12.29;100.00;95203.00;10409783;28;97063;-79
2022/09/26 19:38:50;;;;;;;;;;;;;;;12.08;100.00;95203.78;10437970;27;97489;-79
2022/09/26 19:43:54;;;;;;;3.72;2.00;;;;;;;12.03;100.00;95196.44;10407437;27;96810;-79
2022/09/26 19:48:57;;;;;;;3.27;2.13;;;;;;;12.01;100.00;95179.31;10389401;27;96842;-79
2022/09/26 19:54:00;;;;;;;3.63;1.85;;;;;;;12.03;100.00;95175.50;10414772;27;96922;-79
2022/09/26 19:59:10;;;;;;;2.80;1.77;;;;;;;12.05;100.00;95168.28;10397732;27;97696;-79
2022/09/26 20:04:15;;;;;;;3.63;2.15;;;;;;;12.10;100.00;95172.97;10431433;27;96801;-79
2022/09/26 20:09:19;;;;;;;4.65;2.25;;;;;;;12.16;100.00;95163.56;10428202;27;97173;-79
2022/09/26 20:14:23;;;;;;;4.50;2.35;;;;;;;12.23;100.00;95170.53;10412678;27;96911;-90
2022/09/26 20:19:32;;;;;;;3.85;2.00;;;;;;;12.35;100.00;95146.47;10394517;27;97874;-90
2022/09/26 20:24:38;;;;;;;4.65;2.20;;;;;;;12.52;100.00;95139.19;10381412;28;96799;-91
2022/09/26 20:35:03;;;;;;;2.97;2.05;;;;;;;12.64;100.00;95135.88;10415440;27;98250;-91
2022/09/26 20:40:13;;;;;;;10.30;2.30;;;;;;;12.67;100.00;95143.38;10405121;27;97013;-90
2022/09/26 20:45:22;;;;;;;6.53;2.47;;;;;;;12.74;100.00;95130.31;10415829;27;96806;-90
2022/09/26 20:50:26;;;;;;;3.53;2.13;;;;;;;12.90;100.00;95120.56;10408500;28;97235;-92
2022/09/26 20:55:35;;;;;;;2.95;2.05;;;;;;;12.95;100.00;95111.16;10400548;28;98646;-90
2022/09/26 21:00:46;;;;;;;2.92;1.80;;;;;;;13.00;100.00;95106.16;10412216;28;98424;-83
2022/09/26 21:05:49;;;;;;;4.65;2.05;;;;;;;12.96;100.00;95107.56;10408510;28;97351;-82
2022/09/26 21:10:52;;;;;;;4.65;2.40;;;;;;;12.83;100.00;95129.19;10420223;28;96963;-82
2022/09/26 21:15:56;;;;;;;3.58;2.05;;;;;;;12.58;100.00;95114.84;10423122;27;97689;-83
2022/09/26 21:21:04;;;;;;;3.07;2.03;;;;;;;12.40;100.00;95123.16;10383893;28;96765;-82
2022/09/26 21:26:06;;;;;;;3.40;2.17;;;;;;;12.25;100.00;95115.34;10408951;27;97490;-82
2022/09/26 21:31:20;;;;;;;4.50;2.38;;;;;;;12.11;100.00;95109.97;10413310;28;99333;-82
2022/09/26 21:36:26;;;;;;;4.22;2.40;;;;;;;12.00;100.00;95107.03;10408942;28;97040;-83
2022/09/26 21:41:35;;;;;;;4.07;2.75;;;;;;;11.86;100.00;95106.06;10392985;28;97227;-82
2022/09/26 21:46:39;;;;;;;8.07;2.70;;;;;;;11.66;100.00;95106.63;10387868;28;98438;-83
2022/09/26 21:51:44;;;;;;;3.10;2.43;;;;;;;11.53;100.00;95096.00;10417991;28;97726;-82
2022/09/26 21:56:51;;;;;;;4.33;2.40;;;;;;;11.35;100.00;95084.09;10418539;28;98734;-82
2022/09/26 22:01:56;;;;;;;6.00;2.88;;;;;;;11.24;100.00;95073.25;10399574;28;96893;-82
2022/09/26 22:06:59;;;;;;;4.03;2.57;;;;;;;11.19;100.00;95079.03;10432838;27;96960;-84
2022/09/26 22:12:01;;;;;;;5.07;2.60;;;;;;;11.14;100.00;95071.72;10411976;27;97397;-83
2022/09/26 22:17:06;;;;;;;4.00;2.20;;;;;;;11.11;100.00;95061.63;10424943;27;96798;-83
2022/09/26 22:22:09;;;;;;;4.10;2.60;;;;;;;11.10;100.00;95059.19;10400631;27;98368;-85
2022/09/26 22:27:12;;;;;;;9.38;5.72;;;;;;;11.10;100.00;95064.41;10418944;27;99223;-84
2022/09/26 22:32:16;;;;;;;5.07;2.70;;;;;;;11.00;100.00;95054.22;10400279;28;97157;-86
2022/09/26 22:37:19;;;;;;;2.93;1.97;;;;;;;10.87;100.00;95049.59;10424091;27;97011;-82
2022/09/26 22:42:22;;;;;;;3.42;2.47;;;;;;;10.85;100.00;95051.59;10406514;27;97550;-83
2022/09/26 22:47:26;;;;;;;2.70;1.90;;;;;;;10.87;100.00;95044.38;10394810;28;96943;-84
2022/09/26 22:52:29;;;;;;;2.60;1.80;;;;;;;10.80;100.00;95046.09;10397811;27;97021;-83
2022/09/26 22:57:31;;;;;;;3.97;2.28;;;;;;;10.72;100.00;95041.78;10396220;28;96874;-83
2022/09/26 23:02:36;;;;;;;3.03;2.03;;;;;;;10.66;100.00;95036.44;10409933;27;96863;-83
2022/09/26 23:07:39;;;;;;;2.05;1.50;;;;;;;10.57;100.00;95039.13;10421861;27;96873;-83
2022/09/26 23:12:42;;;;;;;2.83;1.27;;;;;;;10.48;100.00;95028.91;10417915;28;96845;-84
2022/09/26 23:17:47;;;;;;;4.10;1.50;;;;;;;10.34;100.00;95030.50;10408852;27;98762;-83
2022/09/26 23:22:49;;;;;;;3.72;1.40;;;;;;;10.26;100.00;95031.38;10421541;27;97367;-83
2022/09/26 23:27:52;;;;;;;2.65;1.60;;;;;;;10.18;100.00;95028.84;10394640;27;98179;-83
2022/09/26 23:32:56;;;;;;;2.40;1.20;;;;;;;10.09;100.00;95012.44;10392693;27;97771;-83
2022/09/26 23:37:59;;;;;;;3.70;1.35;;;;;;;10.10;100.00;95010.66;10436880;27;96865;-83
2022/09/26 23:43:02;;;;;;;2.33;1.50;;;;;;;10.03;100.00;95013.94;10429507;27;97406;-83
2022/09/26 23:48:06;;;;;;;2.30;1.33;;;;;;;10.04;100.00;95006.91;10412651;27;97857;-83
2022/09/26 23:53:09;;;;;;;3.30;1.58;;;;;;;10.07;100.00;95000.56;10416133;27;96958;-83
2022/09/26 23:58:12;;;;;;;1.95;1.42;;;;;;;10.07;100.00;94993.53;10412869;27;97075;-83
